createdAt,value
2018-02-17T00:00:59.041Z,24.67
2018-02-17T00:03:27.304Z,23.67
2018-02-17T00:05:54.759Z,24.60
2018-02-17T00:08:22.528Z,23.43
2018-02-17T00:10:50.218Z,23.60
2018-02-17T00:13:17.678Z,23.57
2018-02-17T00:15:45.139Z,22.70
2018-02-17T00:18:12.587Z,23.27
2018-02-17T00:20:40.054Z,20.93
2018-02-17T00:23:07.571Z,20.93
2018-02-17T00:25:35.045Z,21.43
2018-02-17T00:28:02.502Z,20.40
2018-02-17T00:30:29.958Z,20.07
2018-02-17T00:32:57.710Z,19.80
2018-02-17T00:35:25.174Z,19.57
2018-02-17T00:37:52.646Z,18.73
2018-02-17T00:40:20.102Z,19.57
2018-02-17T00:42:47.575Z,19.93
2018-02-17T00:45:15.188Z,20.10
2018-02-17T00:47:42.654Z,19.93
2018-02-17T00:50:10.229Z,19.20
2018-02-17T00:52:37.698Z,19.40
2018-02-17T00:55:05.366Z,19.80
2018-02-17T00:57:32.841Z,19.57
2018-02-17T01:00:00.297Z,19.00
2018-02-17T01:02:27.766Z,18.93
2018-02-17T01:04:55.222Z,18.83
2018-02-17T01:07:22.696Z,19.47
2018-02-17T01:09:50.198Z,20.50
2018-02-17T01:12:17.674Z,20.07
2018-02-17T01:14:45.138Z,19.93
2018-02-17T01:17:12.810Z,20.13
2018-02-17T01:19:40.265Z,19.53
2018-02-17T01:22:07.717Z,20.70
2018-02-17T01:24:35.174Z,20.70
2018-02-17T01:27:02.638Z,20.43
2018-02-17T01:29:30.106Z,20.93
2018-02-17T01:31:57.566Z,21.00
2018-02-17T01:34:25.087Z,20.40
2018-02-17T01:36:52.854Z,21.83
2018-02-17T01:39:20.314Z,21.53
2018-02-17T01:41:47.770Z,21.70
2018-02-17T01:44:15.250Z,21.77
2018-02-17T01:46:42.990Z,21.40
2018-02-17T01:49:10.751Z,23.87
2018-02-17T01:51:38.511Z,22.20
2018-02-17T01:54:05.974Z,22.73
2018-02-17T01:56:33.513Z,22.33
2018-02-17T01:59:00.975Z,23.10
2018-02-17T02:01:28.430Z,22.77
2018-02-17T02:03:55.888Z,23.50
2018-02-17T02:06:23.367Z,22.17
2018-02-17T02:08:50.826Z,22.67
2018-02-17T02:11:18.282Z,21.00
2018-02-17T02:13:45.741Z,21.00
2018-02-17T02:16:13.217Z,21.80
2018-02-17T02:18:41.434Z,20.13
2018-02-17T02:21:08.899Z,20.90
2018-02-17T02:23:36.350Z,21.30
2018-02-17T02:26:03.807Z,21.70
2018-02-17T02:28:31.254Z,20.17
2018-02-17T02:30:58.711Z,21.07
2018-02-17T02:33:26.162Z,20.17
2018-02-17T02:35:53.638Z,19.67
2018-02-17T02:38:21.087Z,19.07
2018-02-17T02:40:48.551Z,19.43
2018-02-17T02:43:16.764Z,19.60
2018-02-17T02:45:44.993Z,18.80
2018-02-17T02:48:12.477Z,18.70
2018-02-17T02:50:39.937Z,19.63
2018-02-17T02:53:07.401Z,17.23
2018-02-17T02:55:34.874Z,16.13
2018-02-17T02:58:02.358Z,16.13
2018-02-17T03:00:29.828Z,17.73
2018-02-17T03:02:57.295Z,17.60
2018-02-17T03:05:24.763Z,18.23
2018-02-17T03:07:52.214Z,17.23
2018-02-17T03:10:19.665Z,16.60
2018-02-17T03:12:47.118Z,16.40
2018-02-17T03:15:14.570Z,16.50
2018-02-17T03:17:42.027Z,17.77
2018-02-17T03:20:09.506Z,16.33
2018-02-17T03:22:36.967Z,17.67
2018-02-17T03:25:04.410Z,18.03
2018-02-17T03:27:31.878Z,18.60
2018-02-17T03:29:59.326Z,17.40
2018-02-17T03:32:26.797Z,17.10
2018-02-17T03:34:54.242Z,18.33
2018-02-17T03:37:21.706Z,16.93
2018-02-17T03:39:49.148Z,18.27
2018-02-17T03:42:16.610Z,18.67
2018-02-17T03:44:44.058Z,17.20
2018-02-17T03:47:11.518Z,18.50
2018-02-17T03:49:38.969Z,18.17
2018-02-17T03:52:06.425Z,19.33
2018-02-17T03:54:33.878Z,18.50
2018-02-17T03:57:01.341Z,17.80
2018-02-17T03:59:28.797Z,18.33
2018-02-17T04:01:56.260Z,18.47
2018-02-17T04:04:23.719Z,19.07
2018-02-17T04:06:51.179Z,17.33
2018-02-17T04:09:18.627Z,18.07
2018-02-17T04:11:46.098Z,17.37
2018-02-17T04:14:13.554Z,17.90
2018-02-17T04:16:41.010Z,17.93
2018-02-17T04:19:08.466Z,18.90
2018-02-17T04:21:35.927Z,18.17
2018-02-17T04:24:03.390Z,19.17
2018-02-17T04:26:30.834Z,17.97
2018-02-17T04:28:58.290Z,18.27
2018-02-17T04:31:25.753Z,19.10
2018-02-17T04:33:53.214Z,18.63
2018-02-17T04:36:20.666Z,18.57
2018-02-17T04:38:48.122Z,18.07
2018-02-17T04:41:16.019Z,17.93
2018-02-17T04:43:46.065Z,18.97
2018-02-17T04:46:18.101Z,19.00
2018-02-17T04:48:57.383Z,19.57
2018-02-17T04:51:42.654Z,19.90
2018-02-17T04:54:24.814Z,20.63
2018-02-17T04:56:57.956Z,19.57
2018-02-17T04:59:29.250Z,19.33
2018-02-17T05:02:09.408Z,19.87
2018-02-17T05:04:53.699Z,17.97
2018-02-17T05:07:25.142Z,18.77
2018-02-17T05:09:52.605Z,19.87
2018-02-17T05:12:20.070Z,19.47
2018-02-17T05:14:50.139Z,21.07
2018-02-17T05:17:38.376Z,18.27
2018-02-17T05:20:07.270Z,19.97
2018-02-17T05:22:35.185Z,20.67
2018-02-17T05:25:08.190Z,20.17
2018-02-17T05:27:37.219Z,19.93
2018-02-17T05:30:04.694Z,19.33
2018-02-17T05:32:32.594Z,19.13
2018-02-17T05:35:00.861Z,19.10
2018-02-17T05:37:28.317Z,19.60
2018-02-17T05:40:12.566Z,19.30
2018-02-17T05:42:40.040Z,19.70
2018-02-17T05:45:25.114Z,19.67
2018-02-17T05:47:57.294Z,19.03
2018-02-17T05:50:25.328Z,18.60
2018-02-17T05:52:52.846Z,18.87
2018-02-17T05:55:20.299Z,17.50
2018-02-17T05:57:47.766Z,18.33
2018-02-17T06:00:15.222Z,18.73
2018-02-17T06:02:42.694Z,16.77
2018-02-17T06:05:10.158Z,16.90
2018-02-17T06:07:37.642Z,16.53
2018-02-17T06:10:05.089Z,16.93
2018-02-17T06:12:32.549Z,16.37
2018-02-17T06:15:00.010Z,16.77
2018-02-17T06:17:27.519Z,16.27
2018-02-17T06:19:55.230Z,16.60
2018-02-17T06:22:22.678Z,16.33
2018-02-17T06:24:50.146Z,16.27
2018-02-17T06:27:17.906Z,16.17
2018-02-17T06:29:45.359Z,17.10
2018-02-17T06:32:12.813Z,16.47
2018-02-17T06:34:40.331Z,16.60
2018-02-17T06:37:07.839Z,18.17
2018-02-17T06:39:35.490Z,17.77
2018-02-17T06:42:02.943Z,16.67
2018-02-17T06:44:30.410Z,16.77
2018-02-17T06:46:59.378Z,17.17
2018-02-17T06:49:26.863Z,18.13
2018-02-17T06:51:54.332Z,18.57
2018-02-17T06:54:21.803Z,19.07
2018-02-17T06:56:49.290Z,20.37
2018-02-17T06:59:16.758Z,20.23
2018-02-17T07:01:44.224Z,20.83
2018-02-17T07:04:12.003Z,20.43
2018-02-17T07:06:39.442Z,20.10
2018-02-17T07:09:06.890Z,20.53
2018-02-17T07:11:34.360Z,20.20
2018-02-17T07:14:01.806Z,20.23
2018-02-17T07:16:29.286Z,20.63
2018-02-17T07:18:56.742Z,21.23
2018-02-17T07:21:24.202Z,20.77
2018-02-17T07:23:51.654Z,19.60
2018-02-17T07:26:19.196Z,21.07
2018-02-17T07:28:46.651Z,20.03
2018-02-17T07:31:14.118Z,20.17
2018-02-17T07:33:41.569Z,20.53
2018-02-17T07:36:09.037Z,18.97
2018-02-17T07:38:36.481Z,19.57
2018-02-17T07:41:03.975Z,19.77
2018-02-17T07:43:31.414Z,19.30
2018-02-17T07:45:58.866Z,20.07
2018-02-17T07:48:26.322Z,20.80
2018-02-17T07:50:53.779Z,19.63
2018-02-17T07:53:21.241Z,20.13
2018-02-17T07:55:48.698Z,19.73
2018-02-17T07:58:16.927Z,18.70
2018-02-17T08:00:44.374Z,18.90
2018-02-17T08:03:11.850Z,18.83
2018-02-17T08:05:39.354Z,20.10
2018-02-17T08:08:07.585Z,18.30
2018-02-17T08:10:35.050Z,19.47
2018-02-17T08:13:02.528Z,18.77
2018-02-17T08:15:29.982Z,19.43
2018-02-17T08:17:57.474Z,19.37
2018-02-17T08:20:24.915Z,18.93
2018-02-17T08:22:52.378Z,17.93
2018-02-17T08:25:19.829Z,18.23
2018-02-17T08:27:47.299Z,18.53
2018-02-17T08:30:14.743Z,18.50
2018-02-17T08:32:42.205Z,19.30
2018-02-17T08:35:09.658Z,17.43
2018-02-17T08:37:37.209Z,19.50
2018-02-17T08:40:05.425Z,18.40
2018-02-17T08:42:32.904Z,19.70
2018-02-17T08:45:00.363Z,19.40
2018-02-17T08:47:28.583Z,19.20
2018-02-17T08:49:56.811Z,19.10
2018-02-17T08:52:24.268Z,19.23
2018-02-17T08:54:51.727Z,18.60
2018-02-17T08:57:19.180Z,19.30
2018-02-17T08:59:46.636Z,19.37
2018-02-17T09:02:14.098Z,18.30
2018-02-17T09:04:41.551Z,18.47
2018-02-17T09:07:09.000Z,19.50
2018-02-17T09:09:36.467Z,19.27
2018-02-17T09:12:03.930Z,19.13
2018-02-17T09:14:31.394Z,18.80
2018-02-17T09:16:58.862Z,18.93
2018-02-17T09:19:26.506Z,19.53
2018-02-17T09:21:53.970Z,18.00
2018-02-17T09:24:22.326Z,18.23
2018-02-17T09:26:49.822Z,19.03
2018-02-17T09:29:17.282Z,21.70
2018-02-17T09:31:45.499Z,19.03
2018-02-17T09:34:12.967Z,20.50
2018-02-17T09:36:40.414Z,18.93
2018-02-17T09:39:07.886Z,17.87
2018-02-17T09:41:35.335Z,18.00
2018-02-17T09:44:02.793Z,18.20
2018-02-17T09:46:30.240Z,19.27
2018-02-17T09:48:57.714Z,18.13
2018-02-17T09:51:25.171Z,17.80
2018-02-17T09:53:52.651Z,18.33
2018-02-17T09:56:20.130Z,18.70
2018-02-17T09:58:48.334Z,18.77
2018-02-17T10:01:15.818Z,17.77
2018-02-17T10:03:43.273Z,19.13
2018-02-17T10:06:10.735Z,17.40
2018-02-17T10:08:38.195Z,18.37
2018-02-17T10:11:05.672Z,17.63
2018-02-17T10:13:33.123Z,18.20
2018-02-17T10:16:00.583Z,18.00
2018-02-17T10:18:28.054Z,17.73
2018-02-17T10:20:55.523Z,18.80
2018-02-17T10:23:22.974Z,17.87
2018-02-17T10:25:50.458Z,18.00
2018-02-17T10:28:17.907Z,17.10
2018-02-17T10:30:45.563Z,17.43
2018-02-17T10:33:13.035Z,17.20
2018-02-17T10:35:40.490Z,18.17
2018-02-17T10:38:07.964Z,18.57
2018-02-17T10:40:35.418Z,19.23
2018-02-17T10:43:02.867Z,17.50
2018-02-17T10:45:30.362Z,17.37
2018-02-17T10:47:57.829Z,17.57
2018-02-17T10:50:25.290Z,18.53
2018-02-17T10:52:53.510Z,17.10
2018-02-17T10:55:35.859Z,16.87
2018-02-17T10:58:03.325Z,16.93
2018-02-17T11:00:30.785Z,16.77
2018-02-17T11:02:58.254Z,18.00
2018-02-17T11:05:25.706Z,16.43
2018-02-17T11:07:53.161Z,17.30
2018-02-17T11:10:20.618Z,17.17
2018-02-17T11:12:48.090Z,17.33
2018-02-17T11:15:15.552Z,16.57
2018-02-17T11:17:43.024Z,17.17
2018-02-17T11:20:10.503Z,16.27
2018-02-17T11:22:37.963Z,16.93
2018-02-17T11:25:05.417Z,17.10
2018-02-17T11:27:32.877Z,16.60
2018-02-17T11:30:00.341Z,17.00
2018-02-17T11:32:27.798Z,17.43
2018-02-17T11:34:55.276Z,15.83
2018-02-17T11:37:22.775Z,16.63
2018-02-17T11:39:50.240Z,16.47
2018-02-17T11:42:17.698Z,18.37
2018-02-17T11:44:45.170Z,17.00
2018-02-17T11:47:12.645Z,17.17
2018-02-17T11:49:40.158Z,16.27
2018-02-17T11:52:07.604Z,17.00
2018-02-17T11:54:35.078Z,16.93
2018-02-17T11:57:02.650Z,17.33
2018-02-17T11:59:30.123Z,16.03
2018-02-17T12:01:57.646Z,16.70
2018-02-17T12:04:25.173Z,16.17
2018-02-17T12:06:52.642Z,16.93
2018-02-17T12:09:20.111Z,17.00
2018-02-17T12:11:47.784Z,16.57
2018-02-17T12:14:15.259Z,17.17
2018-02-17T12:16:42.727Z,16.60
2018-02-17T12:19:10.203Z,16.37
2018-02-17T12:21:37.682Z,15.83
2018-02-17T12:24:05.191Z,16.53
2018-02-17T12:26:32.654Z,16.13
2018-02-17T12:29:00.143Z,16.00
2018-02-17T12:31:27.598Z,16.37
2018-02-17T12:33:55.075Z,16.60
2018-02-17T12:36:22.543Z,17.17
2018-02-17T12:38:50.019Z,16.10
2018-02-17T12:41:17.488Z,15.47
2018-02-17T12:43:44.955Z,16.27
2018-02-17T12:46:12.418Z,15.90
2018-02-17T12:48:39.876Z,15.53
2018-02-17T12:51:07.358Z,15.43
2018-02-17T12:53:35.575Z,15.63
2018-02-17T12:56:03.036Z,15.57
2018-02-17T12:58:30.482Z,16.53
2018-02-17T13:00:57.951Z,16.33
2018-02-17T13:03:25.398Z,15.63
2018-02-17T13:05:52.858Z,16.00
2018-02-17T13:08:20.332Z,17.37
2018-02-17T13:10:47.803Z,16.50
2018-02-17T13:13:15.270Z,16.43
2018-02-17T13:15:42.730Z,16.23
2018-02-17T13:18:10.178Z,15.93
2018-02-17T13:20:37.654Z,16.33
2018-02-17T13:23:05.107Z,16.67
2018-02-17T13:25:32.570Z,17.50
2018-02-17T13:28:00.066Z,16.53
2018-02-17T13:30:27.526Z,17.10
2018-02-17T13:32:54.982Z,16.83
2018-02-17T13:35:22.457Z,16.93
2018-02-17T13:37:49.990Z,16.80
2018-02-17T13:40:17.442Z,17.40
2018-02-17T13:42:44.910Z,16.23
2018-02-17T13:45:12.364Z,17.13
2018-02-17T13:47:39.835Z,16.63
2018-02-17T13:50:07.386Z,16.47
2018-02-17T13:52:34.838Z,16.40
2018-02-17T13:55:02.300Z,16.03
2018-02-17T13:57:29.755Z,16.07
2018-02-17T13:59:57.223Z,15.93
2018-02-17T14:02:24.683Z,15.30
2018-02-17T14:04:52.894Z,15.23
2018-02-17T14:07:21.120Z,15.20
2018-02-17T14:09:48.575Z,14.27
2018-02-17T14:12:16.047Z,14.27
2018-02-17T14:14:44.372Z,14.77
2018-02-17T14:17:11.820Z,14.73
2018-02-17T14:19:39.286Z,13.97
2018-02-17T14:22:06.734Z,13.93
2018-02-17T14:24:34.233Z,14.37
2018-02-17T14:27:01.690Z,13.93
2018-02-17T14:29:29.147Z,13.80
2018-02-17T14:31:56.610Z,14.47
2018-02-17T14:34:24.066Z,14.90
2018-02-17T14:36:51.510Z,14.73
2018-02-17T14:39:18.970Z,14.40
2018-02-17T14:41:46.422Z,14.63
2018-02-17T14:44:13.888Z,13.97
2018-02-17T14:46:41.334Z,14.27
2018-02-17T14:49:08.837Z,14.13
2018-02-17T14:51:36.286Z,14.00
2018-02-17T14:54:03.763Z,14.40
2018-02-17T14:56:31.206Z,13.67
2018-02-17T14:58:58.662Z,14.23
2018-02-17T15:01:26.126Z,14.43
2018-02-17T15:03:53.585Z,14.27
2018-02-17T15:06:21.055Z,14.77
2018-02-17T15:08:48.506Z,14.63
2018-02-17T15:11:15.978Z,15.37
2018-02-17T15:13:43.434Z,14.93
2018-02-17T15:16:10.934Z,15.73
2018-02-17T15:18:38.382Z,14.43
2018-02-17T15:21:05.852Z,14.07
2018-02-17T15:23:33.313Z,14.63
2018-02-17T15:26:00.770Z,14.30
2018-02-17T15:28:28.220Z,14.03
2018-02-17T15:30:55.677Z,14.77
2018-02-17T15:33:23.132Z,14.50
2018-02-17T15:35:50.589Z,14.53
2018-02-17T15:38:18.038Z,14.83
2018-02-17T15:40:45.496Z,15.33
2018-02-17T15:43:12.955Z,14.43
2018-02-17T15:45:40.414Z,14.30
2018-02-17T15:48:07.904Z,14.40
2018-02-17T15:50:35.350Z,14.37
2018-02-17T15:53:02.810Z,14.57
2018-02-17T15:55:30.266Z,14.20
2018-02-17T15:57:57.726Z,15.23
2018-02-17T16:00:34.275Z,14.43
2018-02-17T16:03:04.626Z,13.43
2018-02-17T16:05:35.595Z,14.07
2018-02-17T16:08:03.420Z,14.30
2018-02-17T16:10:31.157Z,13.13
2018-02-17T16:12:59.494Z,13.13
2018-02-17T16:15:27.507Z,13.20
2018-02-17T16:17:55.346Z,13.50
2018-02-17T16:20:23.221Z,13.23
2018-02-17T16:22:51.764Z,13.57
2018-02-17T16:25:21.046Z,14.80
2018-02-17T16:27:48.805Z,13.43
2018-02-17T16:30:17.007Z,14.23
2018-02-17T16:32:45.429Z,13.73
2018-02-17T16:35:13.817Z,14.63
2018-02-17T16:37:42.715Z,14.77
2018-02-17T16:40:11.364Z,14.77
2018-02-17T16:42:39.068Z,15.07
2018-02-17T16:45:06.654Z,15.43
2018-02-17T16:47:34.480Z,15.43
2018-02-17T16:50:02.260Z,14.63
2018-02-17T16:52:29.916Z,14.50
2018-02-17T16:54:58.895Z,15.00
2018-02-17T16:57:26.525Z,14.53
2018-02-17T16:59:55.270Z,14.80
2018-02-17T17:02:24.340Z,14.30
2018-02-17T17:04:52.102Z,14.70
2018-02-17T17:07:20.766Z,14.93
2018-02-17T17:09:50.293Z,15.27
2018-02-17T17:12:19.321Z,15.93
2018-02-17T17:14:48.026Z,17.00
2018-02-17T17:17:17.894Z,17.13
2018-02-17T17:19:47.122Z,16.43
2018-02-17T17:22:16.730Z,16.27
2018-02-17T17:24:45.580Z,15.83
2018-02-17T17:27:15.502Z,16.17
2018-02-17T17:29:43.155Z,15.97
2018-02-17T17:32:11.299Z,16.73
2018-02-17T17:34:39.263Z,15.97
2018-02-17T17:37:08.160Z,17.33
2018-02-17T17:39:36.202Z,16.33
2018-02-17T17:42:05.608Z,15.87
2018-02-17T17:44:33.624Z,16.20
2018-02-17T17:47:03.080Z,16.17
2018-02-17T17:49:31.402Z,16.70
2018-02-17T17:52:00.232Z,17.23
2018-02-17T17:54:29.672Z,16.93
2018-02-17T17:56:57.905Z,16.53
2018-02-17T17:59:27.618Z,17.10
2018-02-17T18:01:58.116Z,17.43
2018-02-17T18:04:28.128Z,16.93
2018-02-17T18:06:57.720Z,17.47
2018-02-17T18:09:28.569Z,17.20
2018-02-17T18:11:59.667Z,17.37
2018-02-17T18:14:29.478Z,17.40
2018-02-17T18:16:58.247Z,17.27
2018-02-17T18:19:27.994Z,18.10
2018-02-17T18:21:57.936Z,16.97
2018-02-17T18:24:25.855Z,17.53
2018-02-17T18:26:54.847Z,17.90
2018-02-17T18:29:23.928Z,16.93
2018-02-17T18:31:52.168Z,17.77
2018-02-17T18:34:19.954Z,16.73
2018-02-17T18:36:49.099Z,16.60
2018-02-17T18:39:17.339Z,17.60
2018-02-17T18:41:46.559Z,16.03
2018-02-17T18:44:15.250Z,17.50
2018-02-17T18:46:45.656Z,17.50
2018-02-17T18:49:15.913Z,16.93
2018-02-17T18:51:46.307Z,17.67
2018-02-17T18:54:15.991Z,17.10
2018-02-17T18:56:45.501Z,17.23
2018-02-17T18:59:14.617Z,16.93
2018-02-17T19:01:42.275Z,16.57
2018-02-17T19:04:10.617Z,17.40
2018-02-17T19:06:39.209Z,16.77
2018-02-17T19:09:07.235Z,16.07
2018-02-17T19:11:36.513Z,15.87
2018-02-17T19:14:04.406Z,17.40
2018-02-17T19:16:33.237Z,17.20
2018-02-17T19:19:01.549Z,16.67
2018-02-17T19:21:32.212Z,16.60
2018-02-17T19:24:01.912Z,16.87
2018-02-17T19:26:29.810Z,15.93
2018-02-17T19:28:57.989Z,15.77
2018-02-17T19:31:27.378Z,15.83
2018-02-17T19:33:57.133Z,15.33
2018-02-17T19:36:25.339Z,14.77
2018-02-17T19:38:56.415Z,15.63
2018-02-17T19:41:26.290Z,15.17
2018-02-17T19:43:55.862Z,15.37
2018-02-17T19:46:25.857Z,14.77
2018-02-17T19:48:54.410Z,15.30
2018-02-17T19:51:22.431Z,14.90
2018-02-17T19:53:51.723Z,14.57
2018-02-17T19:56:19.593Z,14.13
2018-02-17T19:58:47.928Z,14.80
2018-02-17T20:01:16.532Z,14.87
2018-02-17T20:03:46.700Z,14.70
2018-02-17T20:06:14.827Z,13.70
2018-02-17T20:08:44.395Z,13.97
2018-02-17T20:11:12.363Z,14.47
2018-02-17T20:13:40.177Z,13.50
2018-02-17T20:16:08.783Z,14.47
2018-02-17T20:18:37.311Z,14.23
2018-02-17T20:21:05.708Z,14.30
2018-02-17T20:23:35.095Z,14.97
2018-02-17T20:26:04.433Z,40.20
2018-02-17T20:28:32.741Z,14.73
2018-02-17T20:31:01.360Z,13.77
2018-02-17T20:33:29.879Z,15.53
2018-02-17T20:35:59.981Z,15.27
2018-02-17T20:38:28.756Z,14.10
2018-02-17T20:40:58.479Z,13.83
2018-02-17T20:43:27.213Z,13.83
2018-02-17T20:45:56.292Z,13.47
2018-02-17T20:48:25.321Z,14.33
2018-02-17T20:50:54.693Z,15.43
2018-02-17T20:53:24.998Z,14.87
2018-02-17T20:55:55.186Z,14.23
2018-02-17T20:58:24.011Z,15.00
2018-02-17T21:00:52.620Z,14.97
2018-02-17T21:03:22.093Z,14.27
2018-02-17T21:05:51.590Z,14.97
2018-02-17T21:08:21.317Z,14.63
2018-02-17T21:10:51.686Z,15.37
2018-02-17T21:13:21.007Z,16.83
2018-02-17T21:15:49.574Z,15.80
2018-02-17T21:18:19.898Z,15.80
2018-02-17T21:20:49.806Z,16.77
2018-02-17T21:23:18.330Z,16.90
2018-02-17T21:25:49.436Z,16.27
2018-02-17T21:28:17.705Z,16.80
2018-02-17T21:30:47.226Z,16.30
2018-02-17T21:33:16.684Z,16.07
2018-02-17T21:35:44.670Z,15.40
2018-02-17T21:38:14.228Z,16.10
2018-02-17T21:40:44.417Z,16.33
2018-02-17T21:43:13.544Z,15.60
2018-02-17T21:45:45.007Z,15.87
2018-02-17T21:48:15.334Z,16.63
2018-02-17T21:50:45.201Z,16.90
2018-02-17T21:53:14.934Z,16.10
2018-02-17T21:55:43.244Z,16.83
2018-02-17T21:58:14.941Z,16.13
2018-02-17T22:00:44.516Z,16.23
2018-02-17T22:03:15.248Z,17.27
2018-02-17T22:05:42.695Z,16.70
2018-02-17T22:08:10.150Z,17.57
2018-02-17T22:10:37.605Z,17.60
2018-02-17T22:13:05.046Z,17.70
2018-02-17T22:15:32.514Z,17.50
2018-02-17T22:17:59.970Z,17.90
2018-02-17T22:20:27.429Z,17.47
2018-02-17T22:22:54.886Z,17.90
2018-02-17T22:25:22.341Z,17.83
2018-02-17T22:27:49.794Z,18.03
2018-02-17T22:30:17.254Z,18.00
2018-02-17T22:32:44.717Z,18.47
2018-02-17T22:35:12.174Z,18.37
2018-02-17T22:37:39.626Z,20.17
2018-02-17T22:40:07.082Z,20.63
2018-02-17T22:42:34.530Z,20.57
2018-02-17T22:45:01.990Z,19.97
2018-02-17T22:47:29.448Z,18.83
2018-02-17T22:49:56.906Z,19.23
2018-02-17T22:52:24.362Z,18.73
2018-02-17T22:54:51.818Z,19.37
2018-02-17T22:59:53.210Z,20.17
2018-02-17T23:02:20.667Z,19.30
2018-02-17T23:04:48.115Z,19.37
2018-02-17T23:07:15.578Z,19.27
2018-02-17T23:09:43.030Z,20.30
2018-02-17T23:12:10.494Z,20.07
2018-02-17T23:14:37.946Z,20.00
2018-02-17T23:17:05.465Z,19.83
2018-02-17T23:19:32.911Z,20.23
2018-02-17T23:22:00.369Z,20.17
2018-02-17T23:24:27.823Z,20.50
2018-02-17T23:26:55.282Z,19.90
2018-02-17T23:29:22.734Z,20.17
2018-02-17T23:31:50.195Z,19.90
2018-02-17T23:34:17.647Z,20.23
2018-02-17T23:36:45.109Z,20.20
2018-02-17T23:39:12.565Z,20.33
2018-02-17T23:41:40.030Z,20.60
2018-02-17T23:44:07.515Z,20.70
2018-02-17T23:46:34.935Z,20.60
2018-02-17T23:49:02.397Z,21.00
2018-02-17T23:51:29.851Z,20.53
2018-02-17T23:53:57.315Z,20.57
2018-02-17T23:56:24.758Z,20.70
2018-02-17T23:58:52.218Z,21.87
